Hauptseite
METAR-TAF:

METAR-TAF

Flughäfen :

Peking, China

Flughafen Peking

Breite: 39-56N, Länge: 116-17E, Höhe: 55 m

Beobachtung

Neuester Wetterbericht von vor 36 Minuten, um 18:30 UTC
Wind 2 kt aus Nordost
Temperatur 18°C
Luftfeuchtigkeit 83%
Luftdruck 1009 hPa
Sichtweite 10 km oder mehr
keine Wolken unter 1500 m und keine Kumulonimbus oder Gewitterwolken

METAR: ZBAA 291830Z 04001MPS CAVOK 18/15 Q1009 NOSIG

Zeit: 03:06 (19:06 UTC)

Prognose

Neuester Wetterbericht von vor 3 Stunden und 16 Minuten, um 15:50 UTC
Gültige Prognose vom 29 um 18 UTC bis 30 um 18 UTC
Wind 8 kt aus Süd
Sichtweite 10 km oder mehr
keine Wolken unter 1500 m und keine Kumulonimbus oder Gewitterwolken
Zeitweise
vom 29 um 18 UTC bis 29 um 23 UTC
Leicht bewölkt in der Höhe von 4000 ft, Kumulonimbus.
Durchbrochene Bewölkung in der Höhe von 4000 ft

TAF: ZBAA 291550Z 2918/3018 18004MPS CAVOK TX27/3007Z TN17/2921Z TEMPO 2918/2923 FEW040CB BKN040

Wetterbeobachtungen und Prognosen von mehr als 4000 Flughäfen (METAR und TAF Bericht).

Die verfügbaren Stationen werden durch gelbe und rote Markierungen auf der Karte dargestellt.

Führen Sie die Maus auf sie, um den Namen der Station zu sehen.

Darauf klicken, um die Beobachtung von Wetterbeobachtungen und Prognosen zu sehen.

Um die Karte zu ändern : klicken Sie auf den grünen Tasten mit einem schwarzen Kreuz Zum Vergrößern, auf den grünen Button mit einem Gedankenstrich zu verkleinern, oder auf die grünen Pfeile für benachbarte Karten.


METAR-TAF: